Time;durP1;ratioP1;P1;durP2;ratioP2;P2;SDS_P1;SDS_P2;PMS_P1;PMS_P2;Temp;Humidity;BMP_temperature;BMP_pressure;BME280_temperature;BME280_humidity;BME280_pressure;Samples;Min_cycle;Max_cycle;Signal;HPM_P1;HPM_P2
2021/12/26 00:00:56;;;;;;;13.03;3.57;;;-11.10;99.90;;;;;;5009452;28;20655;-73
2021/12/26 00:03:43;;;;;;;14.17;3.77;;;-11.10;99.90;;;;;;5010264;28;20616;-73
2021/12/26 00:06:31;;;;;;;11.87;2.83;;;-11.20;99.90;;;;;;5011019;28;20600;-73
2021/12/26 00:09:18;;;;;;;26.67;6.27;;;-11.20;99.90;;;;;;5013330;28;21133;-73
2021/12/26 00:12:07;;;;;;;24.37;6.83;;;-11.30;99.90;;;;;;5012915;28;20585;-74
2021/12/26 00:14:55;;;;;;;42.97;13.63;;;-11.20;99.90;;;;;;5017618;28;21226;-73
2021/12/26 00:17:44;;;;;;;35.00;10.60;;;-11.20;99.90;;;;;;5024295;28;20747;-74
2021/12/26 00:20:32;;;;;;;36.10;11.03;;;-11.00;99.90;;;;;;5032572;28;20624;-73
2021/12/26 00:23:21;;;;;;;49.37;12.20;;;-11.00;99.90;;;;;;5031680;28;20678;-73
2021/12/26 00:26:08;;;;;;;53.03;12.57;;;-11.00;99.90;;;;;;5030992;28;20609;-74
2021/12/26 00:28:56;;;;;;;46.90;12.57;;;-10.90;99.90;;;;;;5031997;28;20611;-74
2021/12/26 00:31:43;;;;;;;42.33;11.47;;;-10.90;99.90;;;;;;5031961;28;20722;-73
2021/12/26 00:34:32;;;;;;;37.80;11.57;;;-10.90;99.90;;;;;;5031067;28;21391;-73
2021/12/26 00:37:20;;;;;;;41.77;9.50;;;-10.80;99.90;;;;;;5048121;28;21177;-74
2021/12/26 00:40:08;;;;;;;28.93;9.33;;;-10.70;99.90;;;;;;5034767;28;20608;-74
2021/12/26 00:42:56;;;;;;;42.17;12.57;;;-10.70;99.90;;;;;;5031622;28;20593;-74
2021/12/26 00:45:44;;;;;;;36.73;12.10;;;-10.70;99.90;;;;;;5022303;28;20636;-74
2021/12/26 00:48:31;;;;;;;39.53;10.50;;;-10.60;99.90;;;;;;5030164;28;20616;-74
2021/12/26 00:51:20;;;;;;;35.43;9.23;;;-10.60;99.90;;;;;;5031412;28;20647;-74
2021/12/26 00:54:08;;;;;;;36.17;9.17;;;-10.60;99.90;;;;;;5029279;28;20648;-73
2021/12/26 00:56:56;;;;;;;28.00;8.10;;;-10.60;99.90;;;;;;5032144;28;20597;-74
2021/12/26 00:59:44;;;;;;;34.17;9.33;;;-10.60;99.90;;;;;;5032119;28;20634;-73
2021/12/26 01:02:31;;;;;;;35.67;9.43;;;-10.60;99.90;;;;;;5031464;28;20964;-73
2021/12/26 01:05:19;;;;;;;25.83;9.17;;;-10.60;99.90;;;;;;5030594;28;20991;-74
2021/12/26 01:08:09;;;;;;;25.80;8.13;;;-10.60;99.90;;;;;;5030468;28;20612;-74
2021/12/26 01:10:59;;;;;;;34.37;9.67;;;-10.60;99.90;;;;;;5042083;28;21216;-74
2021/12/26 01:13:47;;;;;;;24.80;8.43;;;-10.70;99.90;;;;;;5031832;28;20649;-73
2021/12/26 01:16:34;;;;;;;35.17;8.10;;;-10.70;99.90;;;;;;5030690;28;21162;-73
2021/12/26 01:19:29;;;;;;;33.63;9.33;;;-10.80;99.90;;;;;;5029748;28;20616;-74
2021/12/26 01:22:16;;;;;;;23.83;7.70;;;-10.70;99.90;;;;;;5028954;28;21073;-74
2021/12/26 01:25:06;;;;;;;24.43;6.23;;;-10.80;99.90;;;;;;5031225;28;20953;-74
2021/12/26 01:27:53;;;;;;;20.17;6.80;;;-10.80;99.90;;;;;;5032104;28;20732;-73
2021/12/26 01:30:41;;;;;;;28.63;7.80;;;-10.90;99.90;;;;;;5030105;28;20656;-73
2021/12/26 01:33:29;;;;;;;28.77;8.03;;;-10.90;99.90;;;;;;5009392;28;21212;-73
2021/12/26 01:36:16;;;;;;;18.87;5.73;;;-11.00;99.90;;;;;;5010275;28;20613;-74
2021/12/26 01:39:07;;;;;;;35.87;8.07;;;-11.00;99.90;;;;;;5010648;28;20589;-73
2021/12/26 01:42:01;;;;;;;20.33;5.70;;;-10.90;99.90;;;;;;5010650;28;20616;-73
2021/12/26 01:44:49;;;;;;;18.60;6.10;;;-10.90;99.90;;;;;;5011117;28;21164;-73
2021/12/26 01:47:37;;;;;;;23.63;6.97;;;-10.90;99.90;;;;;;5013268;28;20632;-74
2021/12/26 01:50:24;;;;;;;15.07;5.33;;;-10.90;99.90;;;;;;5009994;28;20624;-73
2021/12/26 01:53:12;;;;;;;25.77;7.37;;;-10.90;99.90;;;;;;5011006;28;20752;-74
2021/12/26 01:56:03;;;;;;;17.33;5.47;;;-10.80;99.90;;;;;;5010623;28;20590;-74
2021/12/26 01:58:52;;;;;;;17.43;5.43;;;-10.90;99.90;;;;;;5010097;28;20597;-73
2021/12/26 02:01:39;;;;;;;22.53;6.40;;;-10.90;99.90;;;;;;5010478;28;20597;-74
2021/12/26 02:04:28;;;;;;;7.83;3.13;;;-10.80;99.90;;;;;;5014731;28;20613;-73
2021/12/26 02:07:15;;;;;;;10.50;3.40;;;-10.90;99.90;;;;;;5028610;28;20623;-74
2021/12/26 02:10:03;;;;;;;20.53;5.83;;;-10.80;99.90;;;;;;5029708;28;21024;-73
2021/12/26 02:12:50;;;;;;;18.30;5.63;;;-10.70;99.90;;;;;;5030876;28;20608;-73
2021/12/26 02:15:39;;;;;;;17.67;5.93;;;-10.70;99.90;;;;;;5030900;28;20644;-73
2021/12/26 02:18:27;;;;;;;11.20;4.17;;;-10.70;99.90;;;;;;5029720;28;20616;-73
2021/12/26 02:21:28;;;;;;;15.50;5.97;;;-10.70;99.90;;;;;;5029011;28;21182;-73
2021/12/26 02:24:20;;;;;;;14.53;4.80;;;-10.70;99.90;;;;;;5029970;28;20594;-75
2021/12/26 02:30:16;;;;;;;17.30;5.33;;;-10.80;99.90;;;;;;5028448;28;20676;-74
2021/12/26 02:33:07;;;;;;;17.20;5.37;;;-10.90;99.90;;;;;;5028360;28;21213;-73
2021/12/26 02:35:54;;;;;;;21.40;7.13;;;-10.90;99.90;;;;;;5028898;28;21023;-73
2021/12/26 02:38:43;;;;;;;25.17;7.77;;;-10.90;99.90;;;;;;5029254;28;20686;-73
2021/12/26 02:41:31;;;;;;;19.07;5.37;;;-10.80;99.90;;;;;;5014235;28;20604;-73
2021/12/26 02:44:18;;;;;;;12.80;4.07;;;-10.80;99.90;;;;;;5029102;28;20597;-73
2021/12/26 02:47:06;;;;;;;10.10;3.10;;;-10.80;99.90;;;;;;5017702;28;20682;-73
2021/12/26 02:49:54;;;;;;;8.70;2.23;;;-10.70;99.90;;;;;;5028908;28;20608;-73
2021/12/26 02:52:41;;;;;;;9.47;3.47;;;-10.70;99.90;;;;;;5028652;28;20608;-73
2021/12/26 02:55:30;;;;;;;16.30;3.77;;;-10.70;99.90;;;;;;5028497;28;20780;-73
2021/12/26 02:58:18;;;;;;;10.60;3.23;;;-10.60;99.90;;;;;;5028884;28;20613;-75
2021/12/26 03:01:07;;;;;;;7.63;3.03;;;-10.60;99.90;;;;;;5028929;28;20619;-73
2021/12/26 03:03:55;;;;;;;10.33;2.77;;;-10.60;99.90;;;;;;5028987;28;20601;-73
2021/12/26 03:06:51;;;;;;;7.63;2.80;;;-10.60;99.90;;;;;;5009845;28;20983;-73
2021/12/26 03:09:45;;;;;;;5.47;1.40;;;-10.50;99.90;;;;;;5009507;28;20736;-73
2021/12/26 03:12:34;;;;;;;12.00;2.97;;;-10.50;99.90;;;;;;5010048;28;20598;-73
2021/12/26 03:15:22;;;;;;;8.27;2.57;;;-10.60;99.90;;;;;;5009242;28;20731;-75
2021/12/26 03:18:09;;;;;;;6.50;2.10;;;-10.60;99.90;;;;;;5009330;28;20594;-73
2021/12/26 03:20:57;;;;;;;5.47;2.37;;;-10.70;99.90;;;;;;5014355;28;20669;-73
2021/12/26 03:23:44;;;;;;;7.43;1.97;;;-10.70;99.90;;;;;;5008736;28;20744;-73
2021/12/26 03:26:32;;;;;;;12.13;2.87;;;-10.70;99.90;;;;;;5009427;28;21212;-75
2021/12/26 03:29:21;;;;;;;10.73;2.83;;;-10.80;99.90;;;;;;5009671;28;20727;-72
2021/12/26 03:32:09;;;;;;;9.00;3.00;;;-10.70;99.90;;;;;;5009770;28;21055;-75
2021/12/26 03:34:57;;;;;;;13.43;3.00;;;-10.80;99.90;;;;;;5010861;28;20645;-73
2021/12/26 03:37:44;;;;;;;6.60;2.53;;;-10.80;99.90;;;;;;5014368;28;20609;-74
2021/12/26 03:40:33;;;;;;;11.57;2.67;;;-10.80;99.90;;;;;;5007277;28;20620;-72
2021/12/26 03:43:20;;;;;;;14.00;3.67;;;-10.90;99.90;;;;;;5012677;28;21069;-73
2021/12/26 03:46:09;;;;;;;10.23;3.33;;;-10.80;99.90;;;;;;5012534;28;20620;-73
2021/12/26 03:49:01;;;;;;;9.33;3.17;;;-10.80;99.90;;;;;;5013527;28;20598;-73
2021/12/26 03:51:48;;;;;;;13.87;2.67;;;-10.80;99.90;;;;;;5012249;28;20687;-72
2021/12/26 03:54:36;;;;;;;6.40;2.13;;;-10.80;99.90;;;;;;5013771;28;20626;-72
2021/12/26 03:57:23;;;;;;;10.90;2.57;;;-10.80;99.90;;;;;;5021571;28;20601;-73
2021/12/26 04:00:13;;;;;;;8.53;2.63;;;-10.80;99.90;;;;;;5031432;28;20649;-72
2021/12/26 04:03:02;;;;;;;9.97;2.93;;;-10.80;99.90;;;;;;5018157;28;20744;-73
2021/12/26 04:05:50;;;;;;;11.37;3.07;;;-10.70;99.90;;;;;;5031233;28;20741;-75
2021/12/26 04:08:37;;;;;;;7.33;2.33;;;-10.80;99.90;;;;;;5031436;28;20612;-75
2021/12/26 04:11:25;;;;;;;8.83;2.63;;;-10.70;99.90;;;;;;5031266;28;20672;-74
2021/12/26 04:14:13;;;;;;;6.30;2.43;;;-10.70;99.90;;;;;;5031387;28;21221;-75
2021/12/26 04:17:00;;;;;;;7.60;2.07;;;-10.60;99.90;;;;;;5031730;28;20597;-74
2021/12/26 04:19:49;;;;;;;6.50;2.20;;;-10.70;99.90;;;;;;5031701;28;20620;-73
2021/12/26 04:22:36;;;;;;;8.23;2.40;;;-10.70;99.90;;;;;;5031225;28;20632;-75
2021/12/26 04:25:24;;;;;;;7.93;2.10;;;-10.70;99.90;;;;;;5030865;28;20667;-74
2021/12/26 04:28:11;;;;;;;9.97;2.40;;;-10.70;99.90;;;;;;5031790;28;20714;-75
2021/12/26 04:30:59;;;;;;;9.03;2.87;;;-10.80;99.90;;;;;;5030793;28;20723;-74
2021/12/26 04:33:47;;;;;;;12.40;3.47;;;-10.80;99.90;;;;;;5031085;28;20612;-75
2021/12/26 04:36:36;;;;;;;10.87;3.03;;;-10.80;99.90;;;;;;5031374;28;21028;-73
2021/12/26 04:39:24;;;;;;;11.03;2.93;;;-10.80;99.90;;;;;;5031503;28;20616;-73
2021/12/26 04:42:11;;;;;;;7.50;2.77;;;-10.70;99.90;;;;;;5030720;28;20619;-73
2021/12/26 04:44:59;;;;;;;6.67;2.47;;;-10.70;99.90;;;;;;5017417;28;21081;-72
2021/12/26 04:47:48;;;;;;;6.07;2.27;;;-10.80;99.90;;;;;;5020204;28;21222;-75
2021/12/26 04:50:36;;;;;;;8.87;2.60;;;-10.70;99.90;;;;;;5030785;28;20615;-72
2021/12/26 04:53:25;;;;;;;6.53;1.70;;;-10.80;99.90;;;;;;5030292;28;20714;-75
2021/12/26 04:56:12;;;;;;;7.17;2.40;;;-10.70;99.90;;;;;;5030545;28;20653;-75
2021/12/26 04:59:00;;;;;;;6.73;2.13;;;-10.70;99.90;;;;;;5030992;28;20612;-73
2021/12/26 05:01:48;;;;;;;3.63;1.90;;;-10.60;99.90;;;;;;5031377;28;20719;-73
2021/12/26 05:04:36;;;;;;;9.47;1.93;;;-10.60;99.90;;;;;;5031841;28;20601;-73
2021/12/26 05:07:23;;;;;;;6.50;2.57;;;-10.50;99.90;;;;;;5030423;28;20648;-74
2021/12/26 05:10:13;;;;;;;7.27;1.33;;;-10.50;99.90;;;;;;5014472;28;20645;-74
2021/12/26 05:13:01;;;;;;;6.70;2.20;;;-10.50;99.90;;;;;;5012600;28;20683;-73
2021/12/26 05:15:49;;;;;;;4.17;1.30;;;-10.50;99.90;;;;;;5011687;28;20633;-73
2021/12/26 05:18:36;;;;;;;5.77;1.60;;;-10.50;99.90;;;;;;5011194;28;20688;-74
2021/12/26 05:21:24;;;;;;;2.53;1.30;;;-10.50;99.90;;;;;;5011696;28;20598;-74
2021/12/26 05:24:12;;;;;;;4.27;1.73;;;-10.60;99.90;;;;;;5011284;28;20594;-75
2021/12/26 05:27:00;;;;;;;5.00;1.73;;;-10.60;99.90;;;;;;5023077;28;20627;-75
2021/12/26 05:29:48;;;;;;;6.23;1.60;;;-10.60;99.90;;;;;;5015122;28;20782;-75
2021/12/26 05:32:35;;;;;;;7.97;1.97;;;-10.60;99.90;;;;;;5030425;28;21271;-72
2021/12/26 05:35:23;;;;;;;4.17;1.63;;;-10.60;99.90;;;;;;5028828;28;20692;-73
2021/12/26 05:38:11;;;;;;;3.50;1.63;;;-10.60;99.90;;;;;;5030634;28;20604;-73
2021/12/26 05:40:58;;;;;;;4.77;1.77;;;-10.50;99.90;;;;;;5029771;28;20605;-75
2021/12/26 05:43:47;;;;;;;6.57;1.80;;;-10.60;99.90;;;;;;5030217;28;20687;-74
2021/12/26 05:46:35;;;;;;;7.63;2.10;;;-10.60;99.90;;;;;;5030228;28;20601;-75
2021/12/26 05:49:23;;;;;;;5.23;2.07;;;-10.60;99.90;;;;;;5029781;28;20968;-73
2021/12/26 05:52:10;;;;;;;8.43;2.47;;;-10.50;99.90;;;;;;5027881;28;20696;-74
2021/12/26 05:54:58;;;;;;;6.73;2.27;;;-10.50;99.90;;;;;;5030234;28;20639;-73
2021/12/26 05:57:46;;;;;;;10.37;2.30;;;-10.50;99.90;;;;;;5029437;28;21163;-73
2021/12/26 06:00:35;;;;;;;7.73;2.30;;;-10.50;99.90;;;;;;5029856;28;20619;-75
2021/12/26 06:03:22;;;;;;;6.27;2.20;;;-10.50;99.90;;;;;;5029080;28;21183;-73
2021/12/26 06:06:10;;;;;;;7.73;2.70;;;-10.60;99.90;;;;;;5030120;28;20601;-75
2021/12/26 06:08:57;;;;;;;8.87;2.07;;;-10.50;99.90;;;;;;5029253;28;20613;-73
2021/12/26 06:11:45;;;;;;;6.20;2.00;;;-10.50;99.90;;;;;;5029394;28;20644;-72
2021/12/26 06:14:32;;;;;;;5.30;1.93;;;-10.40;99.90;;;;;;5029198;28;21244;-73
2021/12/26 06:17:21;;;;;;;4.30;1.50;;;-10.60;99.90;;;;;;5029753;28;20615;-73
2021/12/26 06:20:14;;;;;;;8.47;3.00;;;-10.60;99.90;;;;;;5029746;28;20609;-73
2021/12/26 06:23:01;;;;;;;11.13;1.90;;;-10.60;99.90;;;;;;5029994;28;20972;-72
2021/12/26 06:25:49;;;;;;;11.17;3.47;;;-10.70;99.90;;;;;;5029146;28;20622;-73
2021/12/26 06:28:36;;;;;;;9.63;2.70;;;-10.70;99.90;;;;;;5030286;28;20597;-72
2021/12/26 06:31:23;;;;;;;14.87;4.27;;;-10.70;99.90;;;;;;5029782;28;20645;-72
2021/12/26 06:34:12;;;;;;;19.70;6.50;;;-10.70;99.90;;;;;;5030841;28;20605;-73
2021/12/26 06:37:00;;;;;;;17.53;5.33;;;-10.70;99.90;;;;;;5028649;28;20636;-72
2021/12/26 06:39:47;;;;;;;19.30;6.47;;;-10.80;99.90;;;;;;5029035;28;20625;-73
2021/12/26 06:42:40;;;;;;;33.83;7.87;;;-10.80;99.90;;;;;;5028392;28;20691;-72
2021/12/26 06:45:28;;;;;;;42.57;9.77;;;-10.70;99.90;;;;;;5009771;28;21180;-71
2021/12/26 06:48:15;;;;;;;26.97;7.00;;;-10.70;99.90;;;;;;5016310;28;20632;-74
2021/12/26 06:51:04;;;;;;;33.30;8.73;;;-10.70;99.90;;;;;;5010350;28;20608;-71
2021/12/26 06:53:52;;;;;;;32.47;10.27;;;-10.60;99.90;;;;;;5009420;28;20671;-72
2021/12/26 06:56:40;;;;;;;30.90;10.30;;;-10.60;99.90;;;;;;5010618;28;20641;-72
2021/12/26 06:59:27;;;;;;;33.17;10.10;;;-10.60;99.90;;;;;;5015837;28;20622;-73
2021/12/26 07:02:15;;;;;;;39.13;10.67;;;-10.60;99.90;;;;;;5010210;28;20590;-71
2021/12/26 07:05:03;;;;;;;46.23;11.27;;;-10.60;99.90;;;;;;5010147;28;20608;-72
2021/12/26 07:07:52;;;;;;;47.83;11.97;;;-10.50;99.90;;;;;;5009688;28;20597;-72
2021/12/26 07:10:39;;;;;;;50.33;11.20;;;-10.50;99.90;;;;;;5008875;28;20629;-72
2021/12/26 07:13:56;;;;;;;30.30;8.67;;;-10.50;99.90;;;;;;5009314;28;20612;-73
2021/12/26 07:16:44;;;;;;;23.50;6.00;;;-10.50;99.90;;;;;;5011185;28;21385;-73
2021/12/26 07:19:31;;;;;;;36.53;9.70;;;-10.50;99.90;;;;;;5022038;28;20601;-72
2021/12/26 07:22:19;;;;;;;32.57;9.73;;;-10.40;99.90;;;;;;5032416;28;20651;-72
2021/12/26 07:25:09;;;;;;;38.63;10.13;;;-10.40;99.90;;;;;;5031468;28;20601;-72
2021/12/26 07:27:56;;;;;;;43.90;9.73;;;-10.40;99.90;;;;;;5032127;28;20608;-72
2021/12/26 07:30:44;;;;;;;29.23;7.47;;;-10.30;99.90;;;;;;5032309;28;21013;-72
2021/12/26 07:33:32;;;;;;;17.20;5.87;;;-10.30;99.90;;;;;;5033342;28;20617;-72
2021/12/26 07:36:19;;;;;;;33.93;9.37;;;-10.30;99.90;;;;;;5031904;28;20795;-72
2021/12/26 07:39:07;;;;;;;33.30;10.83;;;-10.20;99.90;;;;;;5032236;28;20604;-72
2021/12/26 07:41:56;;;;;;;42.73;11.33;;;-10.10;99.90;;;;;;5023314;28;20605;-74
2021/12/26 07:44:43;;;;;;;43.93;12.40;;;-10.00;99.90;;;;;;5032828;28;20654;-71
2021/12/26 07:47:31;;;;;;;40.53;13.83;;;-9.90;99.90;;;;;;5032111;28;20659;-72
2021/12/26 07:50:18;;;;;;;50.93;18.80;;;-9.70;99.90;;;;;;5032459;28;20717;-72
2021/12/26 07:53:10;;;;;;;35.70;10.87;;;-9.60;99.90;;;;;;5031622;28;20620;-72
2021/12/26 07:55:57;;;;;;;43.70;12.40;;;-9.50;99.90;;;;;;5031550;28;20738;-72
2021/12/26 07:58:46;;;;;;;47.87;14.57;;;-9.30;99.90;;;;;;5032733;28;20613;-72
2021/12/26 08:01:34;;;;;;;57.40;15.70;;;-9.10;99.90;;;;;;5032192;28;20763;-72
2021/12/26 08:04:21;;;;;;;58.33;16.97;;;-9.00;99.90;;;;;;5032689;28;21022;-72
2021/12/26 08:07:09;;;;;;;109.63;31.67;;;-8.80;99.90;;;;;;5032584;28;20611;-72
2021/12/26 08:09:56;;;;;;;93.20;27.87;;;-8.60;99.90;;;;;;5031757;28;20668;-74
2021/12/26 08:12:44;;;;;;;74.40;23.27;;;-8.50;99.90;;;;;;5030095;28;20608;-72
2021/12/26 08:15:33;;;;;;;72.90;24.70;;;-8.30;99.90;;;;;;5031769;28;20616;-72
2021/12/26 08:18:21;;;;;;;84.07;27.37;;;-8.10;99.90;;;;;;5031075;28;20617;-73
2021/12/26 08:21:08;;;;;;;84.80;26.67;;;-7.90;99.90;;;;;;5032329;28;20600;-73
2021/12/26 08:23:56;;;;;;;75.03;24.97;;;-7.60;99.90;;;;;;5016418;28;20632;-75
2021/12/26 08:26:49;;;;;;;68.20;24.13;;;-7.20;99.90;;;;;;5011748;28;20602;-73
2021/12/26 08:29:36;;;;;;;67.90;23.13;;;-6.80;99.90;;;;;;5032104;28;21217;-75
2021/12/26 08:32:27;;;;;;;67.83;24.40;;;-6.30;99.90;;;;;;5032047;28;20616;-74
2021/12/26 08:35:14;;;;;;;76.03;25.40;;;-5.80;99.90;;;;;;5015890;28;20593;-73
2021/12/26 08:38:02;;;;;;;80.50;25.37;;;-5.50;99.90;;;;;;5030782;28;20210;-73
2021/12/26 08:40:50;;;;;;;79.00;27.33;;;-5.10;99.90;;;;;;5031276;28;20264;-73
2021/12/26 08:43:37;;;;;;;68.40;23.03;;;-4.70;99.90;;;;;;5030323;28;20206;-73
2021/12/26 08:46:25;;;;;;;70.23;22.30;;;-4.30;99.90;;;;;;5030819;28;20292;-75
2021/12/26 08:49:14;;;;;;;69.33;23.80;;;-4.00;99.90;;;;;;5027392;28;20202;-74
2021/12/26 08:52:02;;;;;;;78.50;26.27;;;-3.50;99.90;;;;;;5030565;28;20665;-75
2021/12/26 08:54:49;;;;;;;94.73;28.87;;;-3.10;99.90;;;;;;5030887;28;20206;-73
2021/12/26 08:57:37;;;;;;;117.30;30.43;;;-2.70;99.90;;;;;;5030916;28;20607;-75
2021/12/26 09:00:25;;;;;;;131.97;34.50;;;-2.10;99.90;;;;;;5030864;28;20730;-75
2021/12/26 09:03:12;;;;;;;151.60;38.63;;;-1.50;99.90;;;;;;5030599;28;20673;-76
2021/12/26 09:06:01;;;;;;;147.40;36.97;;;-0.40;99.90;;;;;;5030203;28;20241;-76
2021/12/26 09:08:50;;;;;;;82.80;25.30;;;0.70;99.90;;;;;;5031336;28;20702;-75
2021/12/26 09:11:37;;;;;;;37.57;14.47;;;1.30;99.90;;;;;;5030431;28;20700;-76
2021/12/26 09:14:28;;;;;;;40.67;18.53;;;1.90;99.90;;;;;;5029398;28;20259;-76
2021/12/26 09:17:15;;;;;;;54.23;23.20;;;2.80;99.90;;;;;;5029927;28;20214;-77
2021/12/26 09:20:04;;;;;;;55.73;25.20;;;3.60;99.90;;;;;;5029886;28;20254;-76
2021/12/26 09:22:53;;;;;;;67.30;28.73;;;4.30;99.20;;;;;;5029138;28;20229;-75
2021/12/26 09:25:40;;;;;;;42.47;18.67;;;5.00;98.70;;;;;;5030037;28;20283;-75
2021/12/26 09:28:29;;;;;;;53.63;20.33;;;5.80;82.40;;;;;;5030027;28;20216;-75
2021/12/26 09:31:17;;;;;;;45.50;19.07;;;6.30;70.30;;;;;;5030371;28;20248;-75
2021/12/26 09:34:04;;;;;;;34.53;16.30;;;6.60;57.30;;;;;;5029475;28;20204;-75
2021/12/26 09:36:52;;;;;;;31.50;13.30;;;6.60;54.10;;;;;;5030802;28;20900;-74
2021/12/26 09:39:41;;;;;;;26.60;11.77;;;6.40;54.00;;;;;;5030205;28;20213;-74
2021/12/26 09:42:29;;;;;;;26.50;13.23;;;7.20;53.10;;;;;;5030969;28;20213;-74
2021/12/26 09:45:18;;;;;;;30.30;12.87;;;7.90;50.70;;;;;;5013777;28;20256;-75
2021/12/26 09:48:07;;;;;;;26.03;12.77;;;8.80;48.40;;;;;;5009567;28;20285;-75
2021/12/26 09:50:54;;;;;;;29.40;14.13;;;9.70;46.90;;;;;;5009985;28;20280;-75
2021/12/26 09:53:43;;;;;;;46.13;21.27;;;9.90;42.80;;;;;;5011525;28;20625;-75
2021/12/26 09:56:32;;;;;;;41.83;19.13;;;10.20;40.90;;;;;;5011248;28;20223;-75
2021/12/26 09:59:21;;;;;;;40.53;18.93;;;10.40;41.60;;;;;;5009482;28;20206;-75
2021/12/26 10:02:09;;;;;;;41.30;21.03;;;10.90;40.30;;;;;;5014225;28;20676;-75
2021/12/26 10:04:57;;;;;;;39.07;19.83;;;10.90;38.30;;;;;;5026863;28;20237;-75
2021/12/26 10:07:44;;;;;;;41.90;20.07;;;11.40;38.20;;;;;;5029052;28;20213;-75
2021/12/26 10:10:32;;;;;;;43.33;22.50;;;11.80;38.00;;;;;;5016822;28;20229;-75
2021/12/26 10:13:43;;;;;;;39.87;20.73;;;11.90;36.90;;;;;;5028629;28;20209;-75
2021/12/26 10:16:31;;;;;;;36.60;19.37;;;11.70;35.20;;;;;;5029978;28;20688;-75
2021/12/26 10:19:19;;;;;;;45.87;23.13;;;12.00;34.30;;;;;;5029046;28;20217;-75
2021/12/26 10:22:07;;;;;;;24.93;12.53;;;11.50;33.60;;;;;;5029208;28;20744;-75
2021/12/26 10:24:56;;;;;;;30.30;14.23;;;12.20;34.60;;;;;;5029300;28;20229;-75
2021/12/26 10:27:45;;;;;;;26.83;13.40;;;12.50;33.30;;;;;;5028993;28;20198;-75
2021/12/26 10:30:34;;;;;;;27.80;14.23;;;12.90;32.50;;;;;;5028654;28;20747;-75
2021/12/26 10:33:22;;;;;;;28.35;14.55;;;13.00;32.80;;;;;;5029925;28;20323;-76
2021/12/26 10:36:09;;;;;;;31.17;15.02;;;13.00;31.20;;;;;;5027866;28;20194;-75
2021/12/26 10:39:12;;;;;;;28.33;15.88;;;13.40;30.80;;;;;;5028620;28;20213;-76
2021/12/26 10:42:01;;;;;;;20.67;11.80;;;13.10;31.70;;;;;;5029243;28;20216;-77
2021/12/26 10:44:52;;;;;;;22.38;11.50;;;13.20;30.70;;;;;;5028585;28;20692;-77
2021/12/26 10:47:42;;;;;;;24.80;12.68;;;13.90;30.10;;;;;;5027652;28;20193;-77
2021/12/26 10:50:30;;;;;;;24.13;11.82;;;13.90;28.80;;;;;;5023284;28;20684;-77
2021/12/26 10:53:18;;;;;;;30.02;15.27;;;14.00;28.90;;;;;;5028275;28;20252;-77
2021/12/26 10:56:09;;;;;;;42.40;21.98;;;14.10;28.80;;;;;;5027986;28;20213;-77
2021/12/26 10:59:18;;;;;;;40.53;20.90;;;13.30;29.80;;;;;;5028425;28;20209;-77
2021/12/26 11:02:06;;;;;;;45.55;22.17;;;12.50;29.90;;;;;;5029153;28;20198;-77
2021/12/26 11:05:00;;;;;;;42.53;19.80;;;11.50;30.50;;;;;;5028957;28;20670;-77
2021/12/26 11:07:53;;;;;;;41.73;20.73;;;11.20;32.90;;;;;;5028908;28;20205;-77
2021/12/26 11:10:42;;;;;;;34.20;16.90;;;10.80;34.20;;;;;;5028767;28;20221;-77
2021/12/26 11:13:30;;;;;;;33.77;17.47;;;11.20;33.90;;;;;;5020716;28;20205;-76
2021/12/26 11:16:18;;;;;;;34.80;17.47;;;11.30;32.80;;;;;;5008027;28;20198;-76
2021/12/26 11:19:06;;;;;;;36.73;17.27;;;11.30;33.80;;;;;;5008955;28;20666;-76
2021/12/26 11:21:55;;;;;;;37.77;19.47;;;10.70;33.90;;;;;;5008131;28;20199;-75
2021/12/26 11:24:43;;;;;;;38.73;18.73;;;10.40;34.20;;;;;;5010239;28;20214;-76
2021/12/26 11:27:30;;;;;;;35.87;18.07;;;10.30;35.10;;;;;;5009940;28;20201;-76
2021/12/26 11:30:18;;;;;;;39.67;19.70;;;10.50;35.10;;;;;;5014341;28;20711;-76
2021/12/26 11:33:08;;;;;;;37.03;19.27;;;10.90;34.60;;;;;;5026283;28;20217;-76
2021/12/26 11:35:56;;;;;;;31.67;14.90;;;11.30;34.50;;;;;;5028563;28;20214;-76
2021/12/26 11:38:45;;;;;;;31.90;15.47;;;11.90;33.70;;;;;;5028597;28;20355;-76
2021/12/26 11:41:43;;;;;;;31.53;14.97;;;12.30;32.50;;;;;;5028001;28;20205;-76
2021/12/26 11:44:45;;;;;;;33.03;14.97;;;11.90;31.00;;;;;;5027907;28;20206;-76
2021/12/26 11:48:00;;;;;;;35.83;16.20;;;12.10;32.70;;;;;;5024917;28;20543;-76
2021/12/26 11:51:38;;;;;;;32.90;14.93;;;11.60;33.40;;;;;;4961444;28;20239;-76
2021/12/26 11:54:49;;;;;;;32.20;15.27;;;12.00;31.40;;;;;;4960289;28;20209;-76
2021/12/26 11:58:16;;;;;;;33.37;15.87;;;12.30;32.30;;;;;;4962300;28;20230;-75
2021/12/26 12:01:04;;;;;;;33.27;16.43;;;12.20;31.70;;;;;;4967898;28;20730;-76
2021/12/26 12:04:01;;;;;;;35.43;16.90;;;13.10;31.60;;;;;;4970525;28;20208;-75
2021/12/26 12:06:50;;;;;;;26.58;11.73;;;13.80;30.70;;;;;;4972583;28;20196;-75
2021/12/26 12:09:42;;;;;;;22.37;10.30;;;14.20;28.70;;;;;;4972177;28;20659;-76
2021/12/26 12:12:30;;;;;;;24.38;12.48;;;14.20;28.10;;;;;;4967189;28;20744;-75
2021/12/26 12:15:18;;;;;;;22.73;10.98;;;14.40;29.10;;;;;;4971681;28;20204;-75
2021/12/26 12:18:09;;;;;;;28.77;15.32;;;14.40;28.00;;;;;;4971983;28;20224;-75
2021/12/26 12:21:14;;;;;;;27.63;13.43;;;14.50;27.80;;;;;;4972331;28;20295;-76
2021/12/26 12:24:03;;;;;;;39.50;20.97;;;14.60;27.00;;;;;;4971784;28;20206;-75
2021/12/26 12:26:56;;;;;;;45.90;23.43;;;14.90;27.10;;;;;;4971547;28;20240;-75
2021/12/26 12:29:49;;;;;;;41.83;18.57;;;14.80;26.50;;;;;;4971527;28;20271;-75
2021/12/26 12:32:36;;;;;;;23.10;11.27;;;15.40;26.80;;;;;;4972478;28;20234;-74
2021/12/26 12:35:24;;;;;;;19.03;10.30;;;15.20;26.60;;;;;;4972150;28;20332;-75
2021/12/26 12:38:22;;;;;;;44.50;16.47;;;15.10;24.80;;;;;;4971831;28;20898;-74
2021/12/26 12:41:32;;;;;;;36.07;17.60;;;15.00;26.30;;;;;;4972637;28;20204;-74
2021/12/26 12:44:44;;;;;;;23.57;11.90;;;15.40;25.80;;;;;;4971571;28;20283;-73
2021/12/26 12:47:32;;;;;;;31.63;14.97;;;15.40;25.20;;;;;;4995138;28;20661;-74
2021/12/26 12:50:31;;;;;;;27.27;12.87;;;15.30;24.70;;;;;;5032202;28;20296;-74
2021/12/26 12:53:38;;;;;;;23.57;11.90;;;15.80;24.80;;;;;;5030824;28;20202;-73
2021/12/26 12:56:44;;;;;;;24.77;12.83;;;15.10;23.60;;;;;;5030900;28;20241;-74
2021/12/26 12:59:35;;;;;;;27.10;13.07;;;15.00;25.00;;;;;;5032418;28;20220;-73
2021/12/26 13:02:30;;;;;;;31.67;13.77;;;15.40;25.70;;;;;;5012179;28;20206;-73
2021/12/26 13:05:24;;;;;;;31.53;15.33;;;15.90;25.30;;;;;;5011710;28;20676;-73
2021/12/26 13:08:12;;;;;;;29.40;13.17;;;16.20;24.60;;;;;;5011597;28;20204;-73
2021/12/26 13:11:01;;;;;;;30.93;13.97;;;16.20;24.20;;;;;;5011667;28;20329;-73
2021/12/26 13:13:50;;;;;;;23.83;12.47;;;15.30;24.20;;;;;;5011226;28;20207;-74
2021/12/26 13:16:38;;;;;;;23.20;10.40;;;15.70;25.30;;;;;;5012028;28;20209;-73
2021/12/26 13:19:27;;;;;;;28.77;12.33;;;15.90;24.80;;;;;;5015464;28;20207;-74
2021/12/26 13:22:14;;;;;;;27.80;12.90;;;16.10;24.40;;;;;;5012091;28;20204;-73
2021/12/26 13:25:02;;;;;;;25.30;11.03;;;16.00;24.40;;;;;;5011546;28;20675;-74
2021/12/26 13:27:50;;;;;;;30.17;14.30;;;15.70;24.50;;;;;;5011976;28;20244;-74
2021/12/26 13:30:39;;;;;;;39.53;18.27;;;15.00;24.00;;;;;;5011126;28;20306;-74
2021/12/26 13:33:30;;;;;;;39.37;17.90;;;15.50;25.00;;;;;;5011475;28;20221;-74
2021/12/26 13:36:22;;;;;;;44.10;20.63;;;15.80;25.00;;;;;;5016156;28;20621;-74
2021/12/26 13:39:43;;;;;;;54.30;24.23;;;15.80;24.50;;;;;;5010434;28;20266;-73
2021/12/26 13:42:31;;;;;;;53.70;22.03;;;15.60;24.30;;;;;;5022789;28;20265;-73
2021/12/26 13:45:29;;;;;;;49.53;21.50;;;14.10;24.40;;;;;;5030419;28;20204;-73
2021/12/26 13:48:26;;;;;;;38.07;17.40;;;13.40;25.60;;;;;;5029928;28;20345;-73
2021/12/26 13:51:18;;;;;;;36.20;16.10;;;11.70;27.00;;;;;;5029761;28;20201;-72
2021/12/26 13:54:08;;;;;;;51.10;20.13;;;11.10;27.70;;;;;;5030153;28;20274;-74
2021/12/26 13:56:58;;;;;;;43.60;18.13;;;10.50;28.20;;;;;;5029698;28;20856;-72
2021/12/26 13:59:46;;;;;;;45.67;19.73;;;10.20;28.90;;;;;;5030771;28;20255;-73
2021/12/26 14:02:37;;;;;;;42.83;16.63;;;10.60;29.50;;;;;;5030783;28;20258;-73
2021/12/26 14:05:25;;;;;;;34.93;15.00;;;10.90;29.30;;;;;;5030716;28;20248;-73
2021/12/26 14:08:16;;;;;;;43.57;16.40;;;10.50;29.20;;;;;;5030414;28;20249;-73
2021/12/26 14:11:06;;;;;;;35.60;14.07;;;10.30;29.20;;;;;;5030506;28;20222;-72
2021/12/26 14:14:05;;;;;;;42.90;17.50;;;10.00;29.40;;;;;;5030827;28;20208;-72
2021/12/26 14:16:52;;;;;;;102.30;34.20;;;9.00;30.00;;;;;;5028683;28;20209;-72
2021/12/26 14:19:40;;;;;;;87.17;30.63;;;7.60;32.20;;;;;;5031847;28;20201;-72
2021/12/26 14:22:27;;;;;;;86.97;33.40;;;6.00;34.30;;;;;;5030157;28;20559;-73
2021/12/26 14:25:15;;;;;;;71.10;26.40;;;4.40;36.70;;;;;;5029071;28;20206;-72